Latest Weather Observations for Perth

IDW60901

Issued at 7:45 am WST Saturday 20 September 2014 (issued every 10 minutes, with the page automatically refreshed every 10 minutes)

About weather observations | Map of Perth area stations | Latest observations for Perth area | Other Formats
Station Details ID: 009225 Name: PERTH METRO Lat: -31.92 Lon: 115.87 Height: 24.9 m
Data from the previous 72 hours. | See also: Recent months at Perth
Date/Time
WST
Tmp

°C
App
Tmp
°C
Dew
Point
°C
Rel
Hum
%
Delta-T

°C
Wind Press
QNH
hPa
Press
MSL
hPa
Rain
since
9 am
mm
Dir
 
Spd
km/h
Gust
km/h
Spd
kts
Gust
kts
20/07:30am 19.3 16.5 8.6 50 5.6 ENE 13 28 7 15 1014.9 1014.8 0.0
20/07:00am 17.5 15.4 8.4 55 4.7 ENE 9 20 5 11 1015.0 1014.9 0.0
20/06:30am 15.2 13.5 8.4 64 3.4 ENE 7 11 4 6 1015.1 1015.0 0.0
20/06:00am 15.7 13.7 8.7 63 3.6 ENE 9 15 5 8 1015.3 1015.2 0.0
20/05:30am 15.4 13.6 9.3 67 3.1 ENE 9 17 5 9 1015.4 1015.3 0.0
20/05:00am 13.4 12.3 10.0 80 1.8 E 6 9 3 5 1015.6 1015.5 0.0
20/04:30am 13.2 12.2 10.4 83 1.5 E 6 7 3 4 1015.7 1015.6 0.0
20/04:00am 13.8 14.0 10.4 80 1.8 CALM 0 6 0 3 1015.9 1015.8 0.0
20/03:30am 14.6 13.5 10.6 77 2.1 E 7 11 4 6 1016.1 1016.0 0.0
20/03:00am 15.2 14.3 10.8 75 2.3 ENE 6 11 3 6 1016.7 1016.6 0.0
20/02:30am 15.5 14.5 10.9 74 2.4 E 7 17 4 9 1016.9 1016.8 0.0
20/02:00am 15.7 14.7 11.1 74 2.5 E 7 17 4 9 1016.8 1016.7 0.0
20/01:30am 13.7 13.4 12.6 93 0.6 SE 6 19 3 10 1017.1 1017.0 0.0
20/01:00am 13.5 14.3 12.6 94 0.5 CALM 0 0 0 0 1017.6 1017.5 0.0
20/12:30am 13.8 14.6 12.5 92 0.7 SSE 0 0 0 0 1018.0 1017.9 0.0
20/12:00am 14.7 15.8 13.4 92 0.7 SSE 0 0 0 0 1018.3 1018.2 0.0
 
Date/Time
WST
Tmp

°C
App
Tmp
°C
Dew
Point
°C
Rel
Hum
%
Delta-T

°C
Wind Press
QNH
hPa
Press
MSL
hPa
Rain
since
9 am
mm
Dir
 
Spd
km/h
Gust
km/h
Spd
kts
Gust
kts
19/11:30pm 15.5 15.5 13.7 89 1.0 SSE 6 7 3 4 1018.5 1018.4 0.0
19/11:00pm 16.5 16.4 14.0 85 1.4 SSE 7 11 4 6 1018.9 1018.8 0.0
19/10:30pm 17.0 16.6 14.1 83 1.7 SSE 9 13 5 7 1019.3 1019.2 0.0
19/10:00pm 17.6 17.2 14.1 80 2.0 SSE 9 15 5 8 1019.6 1019.6 0.0
19/09:30pm 18.1 17.7 14.2 78 2.2 S 9 13 5 7 1020.0 1020.0 0.0
19/09:00pm 18.3 17.9 14.0 76 2.5 S 9 15 5 8 1020.2 1020.2 0.0
19/08:30pm 18.5 18.4 13.8 74 2.7 S 7 11 4 6 1020.3 1020.3 0.0
19/08:00pm 18.8 18.2 13.4 71 3.1 S 9 13 5 7 1020.3 1020.3 0.0
19/07:30pm 18.6 18.5 13.2 71 3.0 S 6 11 3 6 1020.2 1020.2 0.0
19/07:00pm 19.1 19.1 14.1 73 2.9 S 7 13 4 7 1020.1 1020.1 0.0
19/06:30pm 19.6 19.5 14.0 70 3.2 SSW 7 13 4 7 1019.9 1019.9 0.0
19/06:00pm 20.4 19.9 13.8 66 3.8 SW 9 13 5 7 1019.6 1019.6 0.0
19/05:30pm 21.3 20.8 13.7 62 4.4 SW 9 17 5 9 1019.5 1019.5 0.0
19/05:00pm 22.1 20.7 13.5 58 5.0 SW 13 19 7 10 1019.3 1019.2 0.0
19/04:30pm 22.7 21.3 13.5 56 5.3 WSW 13 20 7 11 1019.3 1019.2 0.0
19/04:00pm 23.6 22.3 13.8 54 5.7 SW 13 20 7 11 1019.2 1019.1 0.0
19/03:30pm 24.4 23.7 14.2 53 6.0 SW 11 19 6 10 1019.2 1019.1 0.0
19/03:00pm 24.1 23.2 13.6 52 6.1 SW 11 19 6 10 1019.3 1019.2 0.0
19/02:30pm 24.0 23.0 13.5 52 6.1 S 11 17 6 9 1019.5 1019.5 0.0
19/02:00pm 24.1 22.5 12.7 49 6.5 S 13 20 7 11 1019.8 1019.8 0.0
19/01:30pm 24.0 23.3 13.2 50 6.3 SSW 9 17 5 9 1020.2 1020.2 0.0
19/01:00pm 23.4 22.6 13.0 52 6.0 S 9 15 5 8 1020.6 1020.6 0.0
19/12:30pm 22.9 22.2 11.9 50 6.2 SSW 7 15 4 8 1021.2 1021.2 0.0
19/12:00pm 23.0 22.7 13.2 54 5.6 ESE 7 13 4 7 1021.6 1021.6 0.0
19/11:30am 22.3 21.8 12.8 55 5.4 ENE 7 15 4 8 1022.1 1022.1 0.0
19/11:00am 21.8 21.1 13.2 58 4.9 SSE 9 15 5 8 1022.3 1022.3 0.0
19/10:30am 21.6 20.9 14.3 63 4.3 S 11 17 6 9 1022.5 1022.5 0.0
19/10:00am 20.9 21.0 13.8 64 4.1 SSE 6 17 3 9 1022.7 1022.7 0.0
19/09:30am 19.3 19.0 13.2 68 3.5 SSE 7 13 4 7 1022.9 1022.9 0.0
19/09:00am 19.2 19.1 14.0 72 3.0 SE 7 11 4 6 1023.0 1023.0 0.0
19/08:30am 18.2 18.1 13.9 76 2.5 SE 7 11 4 6 1022.9 1022.9 0.0
19/08:00am 16.7 16.6 13.4 81 1.8 E 6 9 3 5 1022.6 1022.6 0.0
19/07:30am 14.8 16.1 14.0 95 0.5 CALM 0 0 0 0 1022.4 1022.4 0.0
19/07:00am 12.6 12.9 12.1 97 0.3 E 2 7 1 4 1021.9 1021.9 0.0
19/06:30am 11.3 11.5 10.7 96 0.3 CALM 0 0 0 0 1021.6 1021.6 0.0
19/06:00am 11.5 11.8 10.9 96 0.3 CALM 0 0 0 0 1021.4 1021.4 0.0
19/05:30am 11.3 11.5 10.4 94 0.5 CALM 0 0 0 0 1021.1 1021.1 0.0
19/05:00am 12.0 12.4 11.1 94 0.5 CALM 0 0 0 0 1020.9 1020.9 0.0
19/04:30am 12.3 12.7 11.4 94 0.5 CALM 0 0 0 0 1020.7 1020.7 0.0
19/04:00am 12.7 13.1 11.4 92 0.7 CALM 0 0 0 0 1020.7 1020.7 0.0
19/03:30am 13.5 14.1 11.9 90 0.9 CALM 0 0 0 0 1020.6 1020.6 0.0
19/03:00am 14.8 15.6 12.5 86 1.3 CALM 0 4 0 2 1020.6 1020.6 0.0
19/02:30am 16.1 15.8 12.8 81 1.8 SSE 6 9 3 5 1020.8 1020.8 0.0
19/02:00am 16.3 17.3 13.2 82 1.7 CALM 0 0 0 0 1020.9 1020.9 0.0
19/01:30am 16.4 16.0 13.1 81 1.8 SSE 7 9 4 5 1020.8 1020.8 0.0
19/01:00am 16.2 15.9 13.3 83 1.6 SSE 7 9 4 5 1021.0 1021.0 0.0
19/12:30am 15.9 15.6 13.2 84 1.5 SSE 7 9 4 5 1021.0 1021.0 0.0
19/12:00am 15.5 16.1 13.0 85 1.4 SSE 2 7 1 4 1020.9 1020.9 0.0
 
Date/Time
WST
Tmp

°C
App
Tmp
°C
Dew
Point
°C
Rel
Hum
%
Delta-T

°C
Wind Press
QNH
hPa
Press
MSL
hPa
Rain
since
9 am
mm
Dir
 
Spd
km/h
Gust
km/h
Spd
kts
Gust
kts
18/11:30pm 15.6 15.2 12.9 84 1.5 S 7 9 4 5 1021.0 1021.0 0.0
18/11:00pm 16.2 15.9 12.7 80 1.9 SSE 6 9 3 5 1020.9 1020.9 0.0
18/10:30pm 16.7 16.2 12.8 78 2.2 SSW 7 11 4 6 1021.2 1021.2 0.0
18/10:00pm 17.4 16.2 12.9 75 2.5 S 11 22 6 12 1021.1 1021.1 0.0
18/09:30pm 17.7 16.6 13.0 74 2.6 S 11 20 6 11 1021.1 1021.1 0.0
18/09:00pm 17.6 16.9 13.3 76 2.4 SSW 9 15 5 8 1020.9 1020.9 0.0
18/08:30pm 17.8 16.4 13.5 76 2.4 SSW 13 24 7 13 1020.7 1020.7 0.0
18/08:00pm 17.8 16.9 13.7 77 2.3 SW 11 24 6 13 1020.4 1020.4 0.0
18/07:30pm 17.4 16.9 13.7 79 2.1 SSW 9 17 5 9 1020.0 1020.0 0.0
18/07:00pm 17.4 15.4 13.9 80 2.0 SW 17 28 9 15 1019.6 1019.6 0.0
18/06:30pm 17.4 16.6 13.9 80 2.0 SW 11 19 6 10 1019.2 1019.1 0.0
18/06:00pm 18.1 16.5 13.8 76 2.4 SW 15 26 8 14 1018.8 1018.7 0.0
18/05:30pm 18.7 16.4 14.2 75 2.6 SW 19 30 10 16 1018.2 1018.1 0.0
18/05:00pm 19.6 17.7 14.2 71 3.1 SW 17 26 9 14 1017.9 1017.8 0.0
18/04:30pm 20.1 17.8 14.7 71 3.2 SSW 20 33 11 18 1017.6 1017.5 0.0
18/04:00pm 20.7 17.8 13.9 65 3.9 SSW 22 32 12 17 1017.3 1017.2 0.0
18/03:30pm 21.3 18.2 12.2 56 5.1 SSW 20 33 11 18 1016.9 1016.8 0.0
18/03:00pm 21.7 18.1 10.5 49 6.1 SSW 20 32 11 17 1016.8 1016.7 0.0
18/02:30pm 22.8 19.9 10.9 47 6.6 SSW 17 28 9 15 1016.8 1016.7 0.0
18/02:00pm 22.7 20.0 12.9 54 5.6 SSW 19 28 10 15 1016.8 1016.7 0.0
18/01:30pm 22.6 20.0 13.1 55 5.5 SSW 19 30 10 16 1016.5 1016.4 0.0
18/01:00pm 22.6 20.2 12.5 53 5.7 WSW 17 28 9 15 1016.5 1016.4 0.0
18/12:30pm 23.3 20.4 12.3 50 6.3 SSW 19 28 10 15 1016.6 1016.5 0.0
18/12:00pm 23.9 22.6 13.7 53 6.0 SW 13 20 7 11 1016.6 1016.5 0.0
18/11:30am 23.0 21.7 12.6 52 5.9 SW 11 17 6 9 1016.8 1016.7 0.0
18/11:00am 22.4 20.9 11.8 51 5.9 S 11 19 6 10 1017.1 1017.0 0.0
18/10:30am 21.6 19.8 12.2 55 5.3 S 13 19 7 10 1017.2 1017.1 0.0
18/10:00am 20.5 19.0 12.0 58 4.7 SSW 11 19 6 10 1017.5 1017.4 0.0
18/09:30am 19.8 18.9 12.6 63 4.1 S 9 17 5 9 1017.4 1017.3 0.0
18/09:00am 18.5 17.0 12.0 66 3.6 S 11 15 6 8 1017.5 1017.4 0.0
18/08:30am 17.5 17.0 12.0 70 3.0 S 6 9 3 5 1017.5 1017.4 0.0
18/08:00am 15.9 15.3 11.7 76 2.3 S 6 11 3 6 1017.4 1017.3 0.0
18/07:30am 14.5 13.7 11.8 84 1.5 S 7 11 4 6 1016.9 1016.8 0.0
18/07:00am 12.4 12.4 11.1 92 0.7 S 2 7 1 4 1016.6 1016.5 0.0
18/06:30am 11.9 11.0 10.6 92 0.7 S 6 7 3 4 1016.4 1016.3 0.0
18/06:00am 11.2 11.2 9.9 92 0.7 CALM 0 0 0 0 1016.1 1016.0 0.0
18/05:30am 12.1 11.9 10.5 90 0.8 S 2 7 1 4 1016.0 1015.9 0.0
18/05:00am 13.1 12.2 10.8 86 1.2 S 6 7 3 4 1015.8 1015.7 0.0
18/04:30am 13.3 12.5 11.0 86 1.2 S 6 9 3 5 1015.8 1015.7 0.0
18/04:00am 13.3 12.4 11.2 87 1.1 S 7 9 4 5 1015.7 1015.6 0.0
18/03:30am 13.2 12.4 11.1 87 1.1 S 6 7 3 4 1015.5 1015.4 0.0
18/03:00am 13.7 13.4 11.4 86 1.2 S 4 9 2 5 1015.5 1015.4 0.0
18/02:30am 14.4 13.6 11.6 83 1.5 S 7 9 4 5 1015.6 1015.5 0.0
18/02:00am 14.3 14.4 11.6 84 1.4 S 2 6 1 3 1015.5 1015.4 0.0
18/01:30am 14.4 13.9 11.9 85 1.3 S 6 9 3 5 1015.6 1015.5 0.0
18/01:00am 14.2 14.9 12.1 87 1.1 CALM 0 4 0 2 1015.8 1015.7 0.0
18/12:30am 14.1 14.3 11.8 86 1.2 S 2 7 1 4 1016.0 1015.9 0.0
18/12:00am 15.3 16.0 12.2 82 1.7 CALM 0 0 0 0 1016.1 1016.0 0.0
 
Date/Time
WST
Tmp

°C
App
Tmp
°C
Dew
Point
°C
Rel
Hum
%
Delta-T

°C
Wind Press
QNH
hPa
Press
MSL
hPa
Rain
since
9 am
mm
Dir
 
Spd
km/h
Gust
km/h
Spd
kts
Gust
kts
17/11:30pm 16.0 15.6 12.4 79 2.0 S 6 11 3 6 1016.2 1016.1 0.0
17/11:00pm 16.2 15.8 12.4 78 2.1 S 6 11 3 6 1016.3 1016.2 0.0
17/10:30pm 16.8 15.8 12.3 75 2.5 S 9 15 5 8 1016.4 1016.3 0.0
17/10:00pm 17.2 15.8 12.3 73 2.7 S 11 17 6 9 1016.6 1016.5 0.0
17/09:30pm 17.7 15.9 12.2 70 3.0 S 13 22 7 12 1016.7 1016.6 0.0
17/09:00pm 17.7 16.2 11.9 69 3.2 S 11 20 6 11 1016.4 1016.3 0.0
17/08:30pm 18.1 15.9 12.1 68 3.3 SSW 15 24 8 13 1016.2 1016.1 0.0
17/08:00pm 18.3 16.5 12.1 67 3.4 S 13 24 7 13 1015.8 1015.7 0.0
17/07:30pm 18.6 17.5 12.1 66 3.6 SSW 9 17 5 9 1015.4 1015.3 0.0
17/07:00pm 18.8 17.4 12.3 66 3.6 SSW 11 19 6 10 1015.1 1015.0 0.0
17/06:30pm 19.6 18.4 12.8 65 3.8 SW 11 17 6 9 1014.7 1014.6 0.0
17/06:00pm 20.2 19.0 12.9 63 4.1 SW 11 20 6 11 1014.4 1014.3 0.0
17/05:30pm 21.1 18.9 13.3 61 4.5 SW 17 28 9 15 1014.1 1014.0 0.0
17/05:00pm 22.9 20.5 12.8 53 5.8 SW 17 24 9 13 1013.7 1013.6 0.0
17/04:30pm 23.5 21.3 13.4 53 5.9 SW 17 28 9 15 1013.1 1013.0 0.0
17/04:00pm 25.2 23.6 11.4 42 7.8 SSW 11 20 6 11 1012.6 1012.5 0.0
17/03:30pm 25.4 23.3 11.2 41 8.0 SW 13 24 7 13 1012.7 1012.6 0.0
17/03:00pm 25.4 21.9 8.8 35 9.0 SSW 17 28 9 15 1012.8 1012.7 0.0
17/02:30pm 24.5 21.3 11.8 45 7.2 SW 20 32 11 17 1012.9 1012.8 0.0
17/02:00pm 25.2 22.5 12.8 46 7.2 SW 19 32 10 17 1013.1 1013.0 0.0
17/01:30pm 25.6 22.6 10.6 39 8.4 SW 17 24 9 13 1013.3 1013.2 0.0
17/01:00pm 25.6 22.8 8.6 34 9.2 S 13 22 7 12 1013.5 1013.4 0.0
17/12:30pm 25.4 22.2 8.4 34 9.1 S 15 24 8 13 1013.7 1013.6 0.0
17/12:00pm 25.1 22.6 9.8 38 8.4 S 13 24 7 13 1014.0 1013.9 0.0
17/11:30am 24.3 21.8 9.8 40 7.9 S 13 19 7 10 1014.5 1014.4 0.0
17/11:00am 23.3 21.1 10.7 45 7.0 S 13 19 7 10 1015.1 1015.0 0.0
17/10:30am 22.3 20.8 10.5 47 6.5 SSW 9 15 5 8 1015.7 1015.6 0.0
17/10:00am 20.5 18.6 10.6 53 5.4 S 11 19 6 10 1016.2 1016.1 0.0
17/09:30am 19.6 18.2 9.5 52 5.4 S 7 11 4 6 1016.2 1016.1 0.0
17/09:00am 19.4 18.2 9.6 53 5.2 E 6 9 3 5 1016.0 1015.9 0.0
17/08:30am 17.2 15.6 8.9 58 4.3 ESE 7 13 4 7 1016.4 1016.3 0.0
17/08:00am 16.2 14.6 8.9 62 3.7 E 7 13 4 7 1016.2 1016.1 0.0

Latest Capital City Observations: Canberra | Sydney | Melbourne | Brisbane | Adelaide | Perth | Hobart | Darwin

Other Formats:

Comma delimited format used in spreadsheet applications
http://www.bom.gov.au/fwo/IDW60901/IDW60901.94608.axf

JavaScript Object Notation format (JSON) in row-major order
http://www.bom.gov.au/fwo/IDW60901/IDW60901.94608.json